Flight Track Log - Related Links

Times and Time Zones

All times are in EDT time to prevent confusion due to time zone crossing. See the CTA307 flight status page for this flight to view local times or setup timezone preferences in your user account.

Time Position Orientation Groundspeed Altitude Reporting Facility
EDT Latitude Longitude Course Direction KTS MPH feet Rate Location/Type
Thu 11:01:51 PM 36.2467 -115.1678 88° East 130 150 3,700  Level Los Angeles Center
Thu 11:03:06 PM 36.2483 -115.1089 88° East 137 158 4,300 526 Climbing Los Angeles Center
Thu 11:04:08 PM 36.2511 -115.0597 86° East 140 161 4,900 629 Climbing Los Angeles Center
Thu 11:05:10 PM 36.2556 -115.0111 84° East 143 165 5,600 683 Climbing Los Angeles Center
Thu 11:06:11 PM 36.2492 -114.9633 99° East 147 169 6,300 585 Climbing Los Angeles Center
Thu 11:07:13 PM 36.2200 -114.9325 140° Southeast 141 162 6,800 585 Climbing Los Angeles Center
Thu 11:08:14 PM 36.1856 -114.8975 141° Southeast 139 160 7,500 738 Climbing Los Angeles Center
Thu 11:09:15 PM 36.1547 -114.8653 140° Southeast 146 168 8,300 639 Climbing Los Angeles Center
Thu 11:10:16 PM 36.1233 -114.8303 138° Southeast 148 170 8,800 517 Climbing Los Angeles Center
Thu 11:11:11 PM 36.0928 -114.8006 142° Southeast 155 178 9,300 362 Climbing Los Angeles Center
Thu 11:12:12 PM 36.0583 -114.7617 138° Southeast 167 192 9,500 99 Climbing Los Angeles Center
Thu 11:13:12 PM 36.0211 -114.7208 138° Southeast 184 212 9,500  Level Los Angeles Center
Thu 11:14:13 PM 35.9808 -114.6758 138° Southeast 191 220 9,500  Level Los Angeles Center
Thu 11:15:14 PM 35.9394 -114.6258 136° Southeast 193 222 9,500  Level Los Angeles Center
Thu 11:16:29 PM 35.8903 -114.5697 137° Southeast 190 219 9,500  Level Los Angeles Center
Thu 11:17:30 PM 35.8519 -114.5247 136° Southeast 189 217 9,500  Level Los Angeles Center
Thu 11:18:32 PM 35.8117 -114.4800 138° Southeast 192 221 9,500  Level Los Angeles Center
Thu 11:19:34 PM 35.7742 -114.4325 134° Southeast 193 222 9,500 -48 Level Los Angeles Center
Thu 11:20:36 PM 35.7339 -114.3875 138° Southeast 194 223 9,400  Descending Los Angeles Center
Thu 11:21:37 PM 35.6936 -114.3431 138° Southeast 194 223 9,500 49 Climbing Los Angeles Center
Thu 11:22:39 PM 35.6542 -114.2972 137° Southeast 195 224 9,500  Level Los Angeles Center
Thu 11:23:41 PM 35.6147 -114.2508 136° Southeast 195 224 9,500 -48 Level Los Angeles Center
Thu 11:24:43 PM 35.5681 -114.1981 137° Southeast 197 227 9,400 -49 Descending Los Angeles Center
Thu 11:25:44 PM 35.5275 -114.1519 137° Southeast 198 228 9,400 49 Level Los Angeles Center
Thu 11:26:46 PM 35.4839 -114.1108 142° Southeast 198 228 9,500 97 Climbing Los Angeles Center
Thu 11:27:48 PM 35.4408 -114.0594 136° Southeast 203 234 9,600 49 Climbing Los Angeles Center
Thu 11:28:49 PM 35.3978 -114.0150 140° Southeast 202 232 9,600  Level Los Angeles Center
Thu 11:29:51 PM 35.3550 -113.9719 141° Southeast 201 231 9,600  Level Los Angeles Center
Thu 11:30:53 PM 35.3078 -113.9231 140° Southeast 200 230 9,600  Level Los Angeles Center
Thu 11:31:54 PM 35.2658 -113.8800 140° Southeast 199 229 9,600  Level Los Angeles Center
Thu 11:32:56 PM 35.2236 -113.8369 140° Southeast 199 229 9,600  Level Los Angeles Center
Thu 11:33:58 PM 35.1825 -113.7914 138° Southeast 201 231 9,600  Level Los Angeles Center
Thu 11:35:00 PM 35.1408 -113.7481 140° Southeast 199 229 9,600  Level Los Angeles Center
Thu 11:36:02 PM 35.0900 -113.6950 139° Southeast 200 230 9,600 -49 Level Los Angeles Center
Thu 11:37:03 PM 35.0475 -113.6525 141° Southeast 199 229 9,500 -49 Descending Los Angeles Center
Thu 11:38:05 PM 35.0053 -113.6083 139° Southeast 201 231 9,500  Level Los Angeles Center
Thu 11:39:07 PM 34.9636 -113.5650 140° Southeast 200 230 9,500  Level Los Angeles Center
Thu 11:40:09 PM 34.9208 -113.5222 141° Southeast 200 230 9,500  Level Los Angeles Center
Thu 11:41:11 PM 34.8786 -113.4781 139° Southeast 201 231 9,500  Level Los Angeles Center
Thu 11:42:03 PM 34.8364 -113.4339 139° Southeast 200 230 9,500  Level Albuquerque Center
Thu 11:43:05 PM 34.7942 -113.3908 140° Southeast 201 231 9,500 49 Level Albuquerque Center
Thu 11:44:06 PM 34.7519 -113.3472 140° Southeast 201 231 9,600  Climbing Albuquerque Center
Thu 11:45:08 PM 34.7103 -113.3042 140° Southeast 199 229 9,500 -49 Descending Albuquerque Center
Thu 11:46:09 PM 34.6692 -113.2606 139° Southeast 198 228 9,500  Level Albuquerque Center
Thu 11:47:10 PM 34.6164 -113.2125 143° Southeast 199 229 9,500  Level Albuquerque Center
Thu 11:48:12 PM 34.5742 -113.1700 140° Southeast 199 229 9,500 49 Level Albuquerque Center
Thu 11:49:13 PM 34.5339 -113.1261 138° Southeast 197 227 9,600 49 Climbing Albuquerque Center
Thu 11:50:14 PM 34.4942 -113.0811 137° Southeast 196 226 9,600  Level Albuquerque Center
Thu 11:51:16 PM 34.4558 -113.0369 136° Southeast 194 223 9,600 -49 Level Albuquerque Center
Thu 11:52:17 PM 34.4192 -112.9964 138° Southeast 191 220 9,500 -49 Descending Albuquerque Center
Thu 11:53:18 PM 34.3722 -112.9461 139° Southeast 189 217 9,500 49 Level Albuquerque Center
Thu 11:54:20 PM 34.3369 -112.9056 136° Southeast 189 217 9,600  Climbing Albuquerque Center
Thu 11:55:21 PM 34.2994 -112.8608 135° Southeast 190 219 9,500 -103 Descending Albuquerque Center
Thu 11:56:16 PM 34.2628 -112.8189 137° Southeast 187 215 9,400  Descending Albuquerque Center
Thu 11:56:46 PM 34.2442 -112.7978 137° Southeast 185 213 9,500 88 Climbing Albuquerque Center
Thu 11:57:24 PM 34.2264 -112.7750 133° Southeast 185 213 9,500 100 Level Albuquerque Center
Thu 11:57:46 PM 34.2064 -112.7508 135° Southeast 184 212 9,600 98 Climbing Albuquerque Center
Thu 11:58:25 PM 34.1822 -112.7247 138° Southeast 183 211 9,600 -98 Level Albuquerque Center
Thu 11:58:47 PM 34.1697 -112.7114 139° Southeast 184 212 9,500 -98 Descending Albuquerque Center
Thu 11:59:26 PM 34.1469 -112.6792 130° Southeast 183 211 9,500  Level Albuquerque Center
Thu 11:59:48 PM 34.1342 -112.6664 140° Southeast 185 213 9,500  Level Albuquerque Center
Fri 12:00:27 AM 34.1097 -112.6356 134° Southeast 186 214 9,500  Level Albuquerque Center
Fri 12:00:48 AM 34.0964 -112.6219 140° Southeast 187 215 9,500  Level Albuquerque Center
Fri 12:01:29 AM 34.0733 -112.5914 132° Southeast 187 215 9,500 98 Level Albuquerque Center
Fri 12:01:49 AM 34.0564 -112.5758 143° Southeast 189 217 9,600 98 Climbing Albuquerque Center
Fri 12:02:30 AM 34.0319 -112.5503 139° Southeast 193 222 9,600 59 Level Albuquerque Center
Fri 12:03:31 AM 33.9914 -112.5114 142° Southeast 190 219 9,700  Climbing Albuquerque Center
Fri 12:04:32 AM 33.9531 -112.4711 139° Southeast 185 213 9,600 -49 Descending Albuquerque Center
Fri 12:05:33 AM 33.9122 -112.4319 141° Southeast 188 216 9,600  Level Albuquerque Center
Fri 12:06:34 AM 33.8711 -112.3944 143° Southeast 185 213 9,600 -585 Level Albuquerque Center
Fri 12:07:36 AM 33.8183 -112.3481 144° Southeast 209 241 8,400 -1,024 Descending Albuquerque Center
Fri 12:08:37 AM 33.7733 -112.3006 139° Southeast 216 249 7,500 -836 Descending Albuquerque Center
Fri 12:09:38 AM 33.7344 -112.2450 130° Southeast 219 252 6,700 -738 Descending Albuquerque Center
Fri 12:10:39 AM 33.6992 -112.1886 127° Southeast 214 246 6,000 -590 Descending Albuquerque Center
Fri 12:11:40 AM 33.6669 -112.1322 124° Southeast 208 239 5,500 -246 Descending Albuquerque Center
Fri 12:12:41 AM 33.6383 -112.0797 123° Southeast 192 221 5,500 -246 Level Albuquerque Center
Fri 12:13:42 AM 33.6111 -112.0267 122° Southeast 189 217 5,000 -443 Descending Albuquerque Center
Fri 12:14:43 AM 33.5842 -111.9722 121° Southeast 191 220 4,600 -246 Descending Albuquerque Center
Fri 12:15:44 AM 33.5594 -111.9200 120° Southeast 183 211 4,500 -49 Descending Albuquerque Center
Fri 12:16:45 AM 33.5356 -111.8728 121° Southeast 168 193 4,500 -98 Level Albuquerque Center
Fri 12:17:46 AM 33.4858 -111.8556 164° South 164 189 4,300 -443 Descending Albuquerque Center
Fri 12:18:47 AM 33.4417 -111.8633 188° South 160 184 3,600 -738 Descending Albuquerque Center
Fri 12:19:48 AM 33.4283 -111.9081 250° West 150 173 2,800 -787 Descending Albuquerque Center
Fri 12:20:49 AM 33.4294 -111.9503 272° West 129 148 2,000 -738 Descending Albuquerque Center
Fri 12:21:50 AM 33.4283 -111.9919 268° West 119 137 1,300 -689 Descending Albuquerque Center

Login

Don't have an account? Register now (free) for customized features, flight alerts, and more!